Time;durP1;ratioP1;P1;durP2;ratioP2;P2;SDS_P1;SDS_P2;PMS_P1;PMS_P2;Temp;Humidity;BMP_temperature;BMP_pressure;BME280_temperature;BME280_humidity;BME280_pressure;Samples;Min_cycle;Max_cycle;Signal;HPM_P1;HPM_P2
2024/03/01 00:02:00;;;;;;;26.93;18.13;;;14.50;48.20;;;;;;4997529;28;20464;-60
2024/03/01 00:04:26;;;;;;;26.87;18.90;;;14.40;48.30;;;;;;5000733;28;20193;-58
2024/03/01 00:06:52;;;;;;;29.33;18.23;;;14.40;48.10;;;;;;5004884;28;20214;-60
2024/03/01 00:09:17;;;;;;;29.37;19.37;;;14.40;48.20;;;;;;5003665;28;20205;-59
2024/03/01 00:11:43;;;;;;;24.53;18.30;;;14.30;48.00;;;;;;5004278;28;20209;-59
2024/03/01 00:14:09;;;;;;;25.40;18.80;;;14.20;48.20;;;;;;5003445;28;20567;-59
2024/03/01 00:16:34;;;;;;;43.13;25.73;;;14.00;48.30;;;;;;5003355;28;20210;-58
2024/03/01 00:19:00;;;;;;;31.87;21.80;;;14.00;49.30;;;;;;5003543;28;20760;-58
2024/03/01 00:21:26;;;;;;;21.10;15.77;;;14.10;49.30;;;;;;5003925;28;20237;-60
2024/03/01 00:23:52;;;;;;;25.93;16.87;;;14.10;49.70;;;;;;5000243;28;20190;-59
2024/03/01 00:26:19;;;;;;;23.90;18.53;;;14.10;50.20;;;;;;5002020;28;20511;-59
2024/03/01 00:28:44;;;;;;;23.27;16.30;;;14.20;50.30;;;;;;5002185;28;20441;-59
2024/03/01 00:31:10;;;;;;;25.77;18.10;;;14.30;48.40;;;;;;5003907;28;20435;-59
2024/03/01 00:33:35;;;;;;;27.10;18.53;;;14.20;48.10;;;;;;5002562;28;20286;-59
2024/03/01 00:36:01;;;;;;;28.93;18.47;;;14.20;48.00;;;;;;5003345;28;20206;-59
2024/03/01 00:38:27;;;;;;;29.77;18.00;;;14.00;48.20;;;;;;5002820;28;20202;-57
2024/03/01 00:40:52;;;;;;;25.70;18.00;;;13.90;48.90;;;;;;5002452;28;20194;-60
2024/03/01 00:43:18;;;;;;;30.33;16.70;;;13.90;49.70;;;;;;5003410;28;20190;-58
2024/03/01 00:45:44;;;;;;;28.20;18.10;;;14.00;50.20;;;;;;5004197;28;20225;-58
2024/03/01 00:48:11;;;;;;;24.57;16.87;;;14.10;50.70;;;;;;5005317;28;20452;-61
2024/03/01 00:50:37;;;;;;;32.17;19.40;;;14.20;50.70;;;;;;5004120;28;20713;-59
2024/03/01 00:53:04;;;;;;;27.33;17.30;;;14.30;50.30;;;;;;5002485;28;20556;-60
2024/03/01 00:55:30;;;;;;;26.70;17.13;;;14.40;49.40;;;;;;5004315;28;20413;-60
2024/03/01 00:57:55;;;;;;;25.50;16.73;;;14.50;49.60;;;;;;5005403;28;20907;-60
2024/03/01 01:00:21;;;;;;;23.73;16.43;;;14.60;49.70;;;;;;5003892;28;20537;-58
2024/03/01 01:02:47;;;;;;;29.57;17.20;;;14.60;49.60;;;;;;5001527;28;20220;-60
2024/03/01 01:05:12;;;;;;;25.47;17.80;;;14.60;50.10;;;;;;5000499;28;20186;-60
2024/03/01 01:07:38;;;;;;;29.30;16.77;;;14.60;50.00;;;;;;5004250;28;20214;-58
2024/03/01 01:10:04;;;;;;;30.80;19.30;;;14.60;49.80;;;;;;5001480;28;20191;-58
2024/03/01 01:12:30;;;;;;;21.97;15.77;;;14.60;49.80;;;;;;4998623;28;20848;-59
2024/03/01 01:14:56;;;;;;;23.30;15.63;;;14.50;49.60;;;;;;4995673;28;20846;-60
2024/03/01 01:17:22;;;;;;;29.80;18.70;;;14.50;49.90;;;;;;4998302;28;20461;-60
2024/03/01 01:19:47;;;;;;;22.43;16.63;;;14.60;49.40;;;;;;4998571;28;20190;-59
2024/03/01 01:22:13;;;;;;;25.50;17.80;;;14.60;48.70;;;;;;4999662;28;20202;-57
2024/03/01 01:24:39;;;;;;;28.17;17.53;;;14.60;48.30;;;;;;4997541;28;20709;-58
2024/03/01 01:27:04;;;;;;;24.40;16.73;;;14.50;48.20;;;;;;5001671;28;20237;-60
2024/03/01 01:29:30;;;;;;;28.67;19.00;;;14.40;48.90;;;;;;5007796;28;20190;-61
2024/03/01 01:31:56;;;;;;;29.33;17.27;;;14.30;48.50;;;;;;5001444;28;20197;-59
2024/03/01 01:34:22;;;;;;;27.20;18.13;;;14.30;48.50;;;;;;5001969;28;20298;-57
2024/03/01 01:36:47;;;;;;;22.93;15.70;;;14.10;49.30;;;;;;5002526;28;20241;-60
2024/03/01 01:39:13;;;;;;;26.53;16.50;;;13.90;49.80;;;;;;5004378;28;20376;-59
2024/03/01 01:41:38;;;;;;;23.73;16.73;;;14.00;50.90;;;;;;5005217;28;20195;-59
2024/03/01 01:44:04;;;;;;;21.90;15.70;;;13.90;50.50;;;;;;5003203;28;20719;-59
2024/03/01 01:46:30;;;;;;;31.53;18.20;;;13.80;50.90;;;;;;5006661;28;20213;-58
2024/03/01 01:48:57;;;;;;;28.40;17.67;;;13.90;50.90;;;;;;5004576;28;20568;-57
2024/03/01 01:51:23;;;;;;;31.80;18.80;;;13.90;50.40;;;;;;5003406;28;21012;-58
2024/03/01 01:53:48;;;;;;;23.83;17.10;;;13.90;50.10;;;;;;5002516;28;20479;-60
2024/03/01 01:56:14;;;;;;;26.90;16.70;;;13.90;50.00;;;;;;5001217;28;20875;-58
2024/03/01 01:58:41;;;;;;;30.20;16.90;;;13.90;50.00;;;;;;5005035;28;20197;-59
2024/03/01 02:01:08;;;;;;;30.30;19.20;;;13.60;50.40;;;;;;5001587;28;20460;-60
2024/03/01 02:03:40;;;;;;;25.23;18.37;;;13.60;50.50;;;;;;5000718;28;20559;-59
2024/03/01 02:06:06;;;;;;;31.13;17.40;;;13.40;51.10;;;;;;4997532;28;21043;-58
2024/03/01 02:08:33;;;;;;;26.80;17.57;;;13.50;51.30;;;;;;5004946;28;20490;-58
2024/03/01 02:10:59;;;;;;;28.20;19.17;;;13.60;51.10;;;;;;5002236;28;20881;-60
2024/03/01 02:13:25;;;;;;;26.73;18.73;;;13.70;50.50;;;;;;4999878;28;20488;-58
2024/03/01 02:15:52;;;;;;;28.27;16.37;;;13.70;50.20;;;;;;4999124;28;20469;-59
2024/03/01 02:18:17;;;;;;;28.73;18.80;;;13.60;50.90;;;;;;5007082;28;20200;-60
2024/03/01 02:21:06;;;;;;;33.17;19.70;;;13.60;51.80;;;;;;5007687;28;20987;-59
2024/03/01 02:23:32;;;;;;;26.50;18.00;;;13.70;51.40;;;;;;5004968;28;20214;-58
2024/03/01 02:25:58;;;;;;;28.07;18.83;;;13.80;51.70;;;;;;5009879;28;20440;-59
2024/03/01 02:28:24;;;;;;;24.43;15.73;;;13.90;51.10;;;;;;5007311;28;20439;-59
2024/03/01 02:30:51;;;;;;;27.37;17.17;;;14.00;50.70;;;;;;5007606;28;20243;-60
2024/03/01 02:33:18;;;;;;;22.67;15.90;;;13.90;51.70;;;;;;5008850;28;20231;-60
2024/03/01 02:35:44;;;;;;;23.17;16.93;;;13.60;52.10;;;;;;5006664;28;20432;-60
2024/03/01 02:38:09;;;;;;;27.67;18.63;;;13.60;52.20;;;;;;5009894;28;20424;-60
2024/03/01 02:40:35;;;;;;;25.30;16.30;;;13.70;52.00;;;;;;5009802;28;20193;-60
2024/03/01 02:43:01;;;;;;;22.10;15.50;;;13.80;51.60;;;;;;5009064;28;20193;-59
2024/03/01 02:45:26;;;;;;;25.40;18.57;;;13.60;51.40;;;;;;5005502;28;20277;-59
2024/03/01 02:47:52;;;;;;;25.80;17.20;;;13.60;52.40;;;;;;5007610;28;20316;-60
2024/03/01 02:50:18;;;;;;;26.77;18.67;;;13.60;52.20;;;;;;5009242;28;20850;-61
2024/03/01 02:52:44;;;;;;;29.93;19.33;;;13.50;51.80;;;;;;5000184;28;20477;-60
2024/03/01 02:55:09;;;;;;;27.57;17.67;;;13.50;51.60;;;;;;4998914;28;20192;-59
2024/03/01 02:57:36;;;;;;;27.33;17.20;;;13.60;51.40;;;;;;5001339;28;20202;-60
2024/03/01 03:00:05;;;;;;;23.70;17.00;;;13.40;52.00;;;;;;5005036;28;20186;-60
2024/03/01 03:02:34;;;;;;;30.80;19.80;;;13.50;52.10;;;;;;5002125;28;21161;-59
2024/03/01 03:04:59;;;;;;;25.33;17.47;;;13.60;52.00;;;;;;5006817;28;20575;-60
2024/03/01 03:07:25;;;;;;;29.00;19.83;;;13.70;51.50;;;;;;5006713;28;20536;-59
2024/03/01 03:09:50;;;;;;;28.77;19.43;;;13.80;51.10;;;;;;5004802;28;20237;-59
2024/03/01 03:12:16;;;;;;;30.70;18.57;;;13.80;51.40;;;;;;4999309;28;20192;-60
2024/03/01 03:14:41;;;;;;;29.73;16.20;;;13.80;51.50;;;;;;5001372;28;20213;-60
2024/03/01 03:17:07;;;;;;;23.73;15.90;;;13.90;51.70;;;;;;5001471;28;20205;-58
2024/03/01 03:19:34;;;;;;;28.07;17.60;;;13.80;51.70;;;;;;5003111;28;20198;-59
2024/03/01 03:21:59;;;;;;;24.23;16.97;;;13.70;52.00;;;;;;5002916;28;20185;-59
2024/03/01 03:24:25;;;;;;;28.53;17.73;;;13.70;52.10;;;;;;5006764;28;20508;-58
2024/03/01 03:26:50;;;;;;;25.77;18.50;;;13.70;52.00;;;;;;5009189;28;20206;-60
2024/03/01 03:29:16;;;;;;;29.37;18.40;;;13.80;52.70;;;;;;5003945;28;20586;-60
2024/03/01 03:31:41;;;;;;;29.53;20.13;;;13.80;52.20;;;;;;5003102;28;20273;-59
2024/03/01 03:34:08;;;;;;;32.67;20.33;;;13.90;51.90;;;;;;5008437;28;20662;-59
2024/03/01 03:36:34;;;;;;;28.43;18.63;;;14.10;51.30;;;;;;5007761;28;20216;-58
2024/03/01 03:39:00;;;;;;;30.57;20.47;;;14.20;50.60;;;;;;5001997;28;20444;-58
2024/03/01 03:41:25;;;;;;;25.50;18.70;;;14.20;51.20;;;;;;5008478;28;20201;-59
2024/03/01 03:43:52;;;;;;;24.97;17.63;;;14.10;50.50;;;;;;5004659;28;20194;-59
2024/03/01 03:46:17;;;;;;;29.80;19.50;;;13.90;51.20;;;;;;5006929;28;20209;-57
2024/03/01 03:48:43;;;;;;;31.93;20.40;;;13.80;51.60;;;;;;5010648;28;20448;-60
2024/03/01 03:51:08;;;;;;;27.57;20.10;;;13.70;50.80;;;;;;5005228;28;20264;-58
2024/03/01 03:53:34;;;;;;;27.77;18.70;;;13.40;51.00;;;;;;5005678;28;20210;-60
2024/03/01 03:55:59;;;;;;;35.87;20.47;;;13.10;51.60;;;;;;5004788;28;20298;-59
2024/03/01 03:58:25;;;;;;;31.10;20.83;;;12.80;52.20;;;;;;5001658;28;20185;-60
2024/03/01 04:00:51;;;;;;;31.87;21.57;;;12.60;53.00;;;;;;5003317;28;20194;-60
2024/03/01 04:03:16;;;;;;;33.93;21.03;;;12.20;53.70;;;;;;5006919;28;20193;-58
2024/03/01 04:05:42;;;;;;;32.23;21.27;;;11.90;54.90;;;;;;5004148;28;20241;-59
2024/03/01 04:08:07;;;;;;;29.87;19.77;;;11.50;55.90;;;;;;5007812;28;20558;-57
2024/03/01 04:10:33;;;;;;;35.20;20.70;;;11.50;56.30;;;;;;5008332;28;20216;-58
2024/03/01 04:13:00;;;;;;;32.10;20.93;;;11.30;56.50;;;;;;5006952;28;20319;-59
2024/03/01 04:15:26;;;;;;;34.23;20.40;;;11.10;57.40;;;;;;5003621;28;20488;-58
2024/03/01 04:17:52;;;;;;;32.27;20.27;;;11.30;57.20;;;;;;5007919;28;20441;-58
2024/03/01 04:20:17;;;;;;;38.53;21.30;;;11.20;56.80;;;;;;5004869;28;20891;-59
2024/03/01 04:22:43;;;;;;;31.40;19.17;;;11.10;57.20;;;;;;5008314;28;20468;-59
2024/03/01 04:25:09;;;;;;;30.30;19.77;;;11.00;57.30;;;;;;5008925;28;20686;-57
2024/03/01 04:27:37;;;;;;;35.33;20.77;;;11.10;57.30;;;;;;5004842;28;20260;-57
2024/03/01 04:30:09;;;;;;;29.93;19.90;;;11.30;56.90;;;;;;5005158;28;20424;-58
2024/03/01 04:32:35;;;;;;;30.70;18.43;;;11.20;56.80;;;;;;5007750;28;20436;-59
2024/03/01 04:35:01;;;;;;;32.40;19.40;;;11.10;57.00;;;;;;5004831;28;20441;-58
2024/03/01 04:37:26;;;;;;;31.60;19.00;;;11.20;57.00;;;;;;5006569;28;20202;-60
2024/03/01 04:39:52;;;;;;;30.07;19.03;;;11.10;56.80;;;;;;5007241;28;20557;-60
2024/03/01 04:42:17;;;;;;;27.97;17.50;;;11.10;56.60;;;;;;5009429;28;20908;-60
2024/03/01 04:44:43;;;;;;;31.23;19.73;;;11.20;56.90;;;;;;5007771;28;20221;-60
2024/03/01 04:47:10;;;;;;;32.30;19.20;;;11.10;56.80;;;;;;5008742;28;20205;-60
2024/03/01 04:49:36;;;;;;;31.83;19.43;;;11.10;56.90;;;;;;5000739;28;20195;-60
2024/03/01 04:52:01;;;;;;;32.20;19.47;;;10.90;57.40;;;;;;5005157;28;20452;-59
2024/03/01 04:54:27;;;;;;;31.57;20.23;;;10.90;57.20;;;;;;5001882;28;20213;-60
2024/03/01 04:56:53;;;;;;;28.93;19.80;;;10.90;57.30;;;;;;5000490;28;20256;-60
2024/03/01 04:59:18;;;;;;;31.80;19.57;;;10.90;57.20;;;;;;4998082;28;20206;-58
2024/03/01 05:01:44;;;;;;;30.80;19.60;;;10.80;57.40;;;;;;5001720;28;20194;-59
2024/03/01 05:04:09;;;;;;;33.17;19.80;;;10.40;57.80;;;;;;5000695;28;20196;-60
2024/03/01 05:06:39;;;;;;;29.70;19.73;;;10.10;59.30;;;;;;4997474;28;20692;-58
2024/03/01 05:09:07;;;;;;;27.50;17.70;;;10.00;59.60;;;;;;5002679;28;20202;-59
2024/03/01 05:11:35;;;;;;;35.77;19.30;;;9.80;61.20;;;;;;5008390;28;20847;-59
2024/03/01 05:14:01;;;;;;;30.40;18.73;;;9.60;62.40;;;;;;4998853;28;20546;-59
2024/03/01 05:16:27;;;;;;;34.20;19.63;;;9.70;62.20;;;;;;4996514;28;20956;-58
2024/03/01 05:18:52;;;;;;;31.53;20.67;;;9.90;61.80;;;;;;4996501;28;20494;-57
2024/03/01 05:21:22;;;;;;;33.87;20.30;;;10.00;60.40;;;;;;4999846;28;20194;-58
2024/03/01 05:23:51;;;;;;;34.87;22.03;;;10.10;60.30;;;;;;4996826;28;20190;-59
2024/03/01 05:26:17;;;;;;;42.33;23.23;;;9.90;61.90;;;;;;5003625;28;20459;-59
2024/03/01 05:28:43;;;;;;;36.33;22.70;;;9.70;63.30;;;;;;5000272;28;20477;-57
2024/03/01 05:31:09;;;;;;;42.40;23.17;;;9.80;63.30;;;;;;4997875;28;20950;-60
2024/03/01 05:33:35;;;;;;;38.50;20.60;;;9.80;63.00;;;;;;5001958;28;20752;-58
2024/03/01 05:36:01;;;;;;;32.93;20.83;;;9.60;63.80;;;;;;4997119;28;20311;-58
2024/03/01 05:38:27;;;;;;;46.67;21.77;;;9.50;64.40;;;;;;4999013;28;20236;-59
2024/03/01 05:40:52;;;;;;;39.33;22.03;;;9.40;64.50;;;;;;5000487;28;20962;-60
2024/03/01 05:43:24;;;;;;;33.97;22.00;;;9.40;65.00;;;;;;5006787;28;20189;-58
2024/03/01 05:45:50;;;;;;;37.63;21.47;;;9.60;64.80;;;;;;5007165;28;20185;-60
2024/03/01 05:48:16;;;;;;;38.63;22.47;;;9.80;64.50;;;;;;5003923;28;20436;-60
2024/03/01 05:50:42;;;;;;;36.97;21.57;;;9.90;64.00;;;;;;5006234;28;20436;-58
2024/03/01 05:53:14;;;;;;;33.77;20.17;;;9.80;64.40;;;;;;5003396;28;20469;-56
2024/03/01 05:55:40;;;;;;;35.97;22.37;;;9.90;64.20;;;;;;5005156;28;20332;-60
2024/03/01 05:58:06;;;;;;;35.00;22.03;;;9.90;63.90;;;;;;4996875;28;20444;-56
2024/03/01 06:00:32;;;;;;;38.63;21.80;;;9.70;64.10;;;;;;5004863;28;20538;-58
2024/03/01 06:02:57;;;;;;;35.03;21.20;;;9.80;64.40;;;;;;4997536;28;20182;-58
2024/03/01 06:05:23;;;;;;;36.07;21.37;;;9.70;64.30;;;;;;4998794;28;20281;-56
2024/03/01 06:07:49;;;;;;;35.67;21.30;;;9.80;64.90;;;;;;4997197;28;20206;-57
2024/03/01 06:10:16;;;;;;;36.87;20.40;;;9.90;64.20;;;;;;4998205;28;20194;-58
2024/03/01 06:12:42;;;;;;;35.60;21.77;;;9.80;64.10;;;;;;4996732;28;20206;-57
2024/03/01 06:15:08;;;;;;;37.47;21.70;;;9.90;64.00;;;;;;5001773;28;20763;-57
2024/03/01 06:17:34;;;;;;;47.37;19.13;;;9.90;63.80;;;;;;5001347;28;20209;-58
2024/03/01 06:20:00;;;;;;;30.87;19.00;;;10.00;62.80;;;;;;5002246;28;20284;-60
2024/03/01 06:22:31;;;;;;;36.60;21.83;;;10.20;64.60;;;;;;5008666;28;20966;-58
2024/03/01 06:24:57;;;;;;;36.97;21.63;;;10.50;64.30;;;;;;5010962;28;20459;-60
2024/03/01 06:27:22;;;;;;;38.30;20.73;;;10.40;62.90;;;;;;5009125;28;20448;-58
2024/03/01 06:29:48;;;;;;;35.70;20.93;;;10.70;62.30;;;;;;5010445;28;20220;-59
2024/03/01 06:32:14;;;;;;;33.37;19.13;;;10.90;61.70;;;;;;5010783;28;20425;-59
2024/03/01 06:34:40;;;;;;;40.80;21.77;;;10.90;61.20;;;;;;5010786;28;20217;-61
2024/03/01 06:37:05;;;;;;;33.50;20.33;;;11.20;60.50;;;;;;5009406;28;20210;-59
2024/03/01 06:39:31;;;;;;;32.90;20.17;;;11.30;59.90;;;;;;5011262;28;20186;-59
2024/03/01 06:41:56;;;;;;;35.30;21.27;;;11.50;59.60;;;;;;5012261;28;20681;-60
2024/03/01 06:44:25;;;;;;;32.87;21.73;;;11.70;58.90;;;;;;5009077;28;20558;-59
2024/03/01 06:46:52;;;;;;;30.87;19.23;;;11.80;58.40;;;;;;5009998;28;20202;-59
2024/03/01 06:49:18;;;;;;;32.40;20.83;;;11.90;58.30;;;;;;5010334;28;20437;-59
2024/03/01 06:51:44;;;;;;;29.50;19.23;;;11.90;58.60;;;;;;5012972;28;20421;-57
2024/03/01 06:54:09;;;;;;;32.07;20.00;;;12.00;57.70;;;;;;5011576;28;20988;-59
2024/03/01 06:56:42;;;;;;;30.00;20.80;;;12.00;57.70;;;;;;5008765;28;20716;-60
2024/03/01 06:59:08;;;;;;;29.47;20.13;;;12.10;57.50;;;;;;5003469;28;20194;-60
2024/03/01 07:01:34;;;;;;;31.33;18.77;;;12.30;57.10;;;;;;5011328;28;20498;-57
2024/03/01 07:04:00;;;;;;;33.70;19.93;;;12.30;57.20;;;;;;5011308;28;20185;-56
2024/03/01 07:06:26;;;;;;;33.40;21.67;;;12.20;57.30;;;;;;5010818;28;20576;-58
2024/03/01 07:08:52;;;;;;;32.60;22.20;;;12.20;57.30;;;;;;5007851;28;20802;-57
2024/03/01 07:11:18;;;;;;;29.67;19.67;;;12.40;56.90;;;;;;5010613;28;20409;-58
2024/03/01 07:13:43;;;;;;;32.10;19.90;;;12.40;57.30;;;;;;5009652;28;20538;-58
2024/03/01 07:16:09;;;;;;;32.70;20.50;;;12.30;57.60;;;;;;5010275;28;20209;-61
2024/03/01 07:18:34;;;;;;;35.13;22.43;;;12.30;57.10;;;;;;5009777;28;20194;-60
2024/03/01 07:21:00;;;;;;;33.37;20.60;;;12.30;57.30;;;;;;5010099;28;20190;-56
2024/03/01 07:23:26;;;;;;;29.40;19.40;;;12.40;57.30;;;;;;5008074;28;20252;-59
2024/03/01 07:25:51;;;;;;;36.50;22.00;;;12.50;56.90;;;;;;5006874;28;20656;-56
2024/03/01 07:28:17;;;;;;;32.40;20.90;;;12.70;56.70;;;;;;5009382;28;20185;-58
2024/03/01 07:30:43;;;;;;;38.10;22.33;;;12.70;56.40;;;;;;5009663;28;20345;-57
2024/03/01 07:33:08;;;;;;;29.47;20.63;;;12.70;56.40;;;;;;5005831;28;20206;-58
2024/03/01 07:35:34;;;;;;;33.80;19.77;;;12.80;56.60;;;;;;5009749;28;20451;-59
2024/03/01 07:37:59;;;;;;;34.07;21.43;;;12.80;56.40;;;;;;5008730;28;20208;-57
2024/03/01 07:40:25;;;;;;;34.70;21.47;;;13.00;56.20;;;;;;5007610;28;20197;-58
2024/03/01 07:42:51;;;;;;;27.17;19.30;;;13.10;56.00;;;;;;5003827;28;20182;-57
2024/03/01 07:45:16;;;;;;;33.77;21.57;;;13.10;55.90;;;;;;5005292;28;20209;-58
2024/03/01 07:47:44;;;;;;;32.00;22.07;;;13.20;55.90;;;;;;5004659;28;20221;-59
2024/03/01 07:50:09;;;;;;;32.80;19.87;;;13.20;55.90;;;;;;5010876;28;20194;-57
2024/03/01 07:52:35;;;;;;;29.50;19.83;;;13.20;56.00;;;;;;5006436;28;20795;-57
2024/03/01 07:55:00;;;;;;;29.13;20.10;;;13.10;56.20;;;;;;5008314;28;20196;-59
2024/03/01 07:57:26;;;;;;;27.83;18.97;;;13.10;56.20;;;;;;5003697;28;20264;-58
2024/03/01 07:59:52;;;;;;;26.10;19.20;;;13.10;56.40;;;;;;5007094;28;20648;-58
2024/03/01 08:02:17;;;;;;;35.13;23.90;;;13.30;56.20;;;;;;5007892;28;20255;-59
2024/03/01 08:04:43;;;;;;;39.43;26.57;;;13.40;55.80;;;;;;5011442;28;20197;-59
2024/03/01 08:07:13;;;;;;;34.20;23.50;;;13.40;55.60;;;;;;5011178;28;20201;-61
2024/03/01 08:09:40;;;;;;;29.10;18.87;;;13.20;56.20;;;;;;5003982;28;20444;-60
2024/03/01 08:12:13;;;;;;;27.17;18.97;;;13.00;56.80;;;;;;5005144;28;20451;-60
2024/03/01 08:14:39;;;;;;;27.47;21.07;;;13.00;57.20;;;;;;5008357;28;20964;-61
2024/03/01 08:17:06;;;;;;;29.70;19.00;;;13.20;57.10;;;;;;5006781;28;20477;-59
2024/03/01 08:19:41;;;;;;;27.90;18.63;;;13.20;57.00;;;;;;5007498;28;20185;-59
2024/03/01 08:22:12;;;;;;;27.77;18.87;;;13.20;56.80;;;;;;5002980;28;20448;-61
2024/03/01 08:24:46;;;;;;;31.50;20.40;;;13.20;56.90;;;;;;5003019;28;20449;-61
2024/03/01 08:27:16;;;;;;;31.63;20.30;;;13.40;56.60;;;;;;5006853;28;20456;-62
2024/03/01 08:29:42;;;;;;;31.77;20.20;;;13.50;56.50;;;;;;5010440;28;20440;-59
2024/03/01 08:32:30;;;;;;;30.10;18.90;;;13.70;56.90;;;;;;5004627;28;20452;-59
2024/03/01 08:34:57;;;;;;;30.43;19.77;;;13.80;56.20;;;;;;5010672;28;20217;-60
2024/03/01 08:37:29;;;;;;;31.93;21.03;;;13.90;56.50;;;;;;5007584;28;21026;-60
2024/03/01 08:39:55;;;;;;;30.03;19.17;;;14.00;55.70;;;;;;5006627;28;20448;-61
2024/03/01 08:42:22;;;;;;;26.43;18.97;;;14.20;55.70;;;;;;5006923;28;20409;-60
2024/03/01 08:44:59;;;;;;;26.93;18.03;;;14.10;55.40;;;;;;5000935;28;20444;-61
2024/03/01 08:47:31;;;;;;;29.50;20.00;;;14.20;55.40;;;;;;5003261;28;20468;-60
2024/03/01 08:50:30;;;;;;;33.37;21.10;;;14.10;56.00;;;;;;5007912;28;20433;-60
2024/03/01 08:52:57;;;;;;;31.53;20.83;;;14.10;55.30;;;;;;5000559;28;20964;-59
2024/03/01 08:55:39;;;;;;;31.50;20.23;;;14.00;55.90;;;;;;5004740;28;20450;-61
2024/03/01 08:58:13;;;;;;;30.20;20.20;;;14.10;55.90;;;;;;5007680;28;20526;-57
2024/03/01 09:00:50;;;;;;;30.97;21.50;;;14.20;55.70;;;;;;5008786;28;20440;-61
2024/03/01 09:03:20;;;;;;;35.17;20.50;;;14.30;55.40;;;;;;5004980;28;20452;-58
2024/03/01 09:05:46;;;;;;;30.57;20.60;;;14.30;55.50;;;;;;5004151;28;21063;-60
2024/03/01 09:08:22;;;;;;;32.10;21.47;;;14.30;55.30;;;;;;5001737;28;20559;-61
2024/03/01 09:10:52;;;;;;;30.77;20.40;;;14.40;55.20;;;;;;5006143;28;20192;-60
2024/03/01 09:13:18;;;;;;;34.63;21.30;;;14.40;55.50;;;;;;5004116;28;20628;-59
2024/03/01 09:15:45;;;;;;;31.37;20.13;;;14.30;55.90;;;;;;5007618;28;20563;-61
2024/03/01 09:18:26;;;;;;;26.70;19.77;;;14.10;56.40;;;;;;5007197;28;20217;-61
2024/03/01 09:20:53;;;;;;;30.00;19.80;;;14.10;57.30;;;;;;5008528;28;20476;-61
2024/03/01 09:23:19;;;;;;;29.30;19.30;;;14.10;57.50;;;;;;5007782;28;20546;-60
2024/03/01 09:25:48;;;;;;;27.80;18.53;;;14.00;57.60;;;;;;5005986;28;20440;-60
2024/03/01 09:28:15;;;;;;;28.87;18.93;;;13.90;58.40;;;;;;5006254;28;20198;-61
2024/03/01 09:30:44;;;;;;;34.27;20.70;;;13.80;58.60;;;;;;5008261;28;20448;-61
2024/03/01 09:33:18;;;;;;;31.30;21.37;;;13.80;58.40;;;;;;5003249;28;20476;-60
2024/03/01 09:35:44;;;;;;;30.10;19.30;;;14.10;58.00;;;;;;5003489;28;20460;-61
2024/03/01 09:38:12;;;;;;;27.23;17.57;;;14.10;58.10;;;;;;5008885;28;20528;-61
2024/03/01 09:40:50;;;;;;;27.77;19.53;;;14.20;57.80;;;;;;5001938;28;20444;-62
2024/03/01 09:43:29;;;;;;;27.30;19.17;;;14.30;57.80;;;;;;5004478;28;20507;-62
2024/03/01 09:46:02;;;;;;;30.40;19.00;;;14.20;58.20;;;;;;5004041;28;20535;-61
2024/03/01 09:48:40;;;;;;;31.23;17.70;;;14.50;58.00;;;;;;5005949;28;20494;-61
2024/03/01 09:51:24;;;;;;;24.57;17.90;;;14.50;57.90;;;;;;5009778;28;20463;-62
2024/03/01 09:54:08;;;;;;;26.83;18.70;;;14.60;57.80;;;;;;5001884;28;21208;-60
2024/03/01 09:57:04;;;;;;;29.70;18.20;;;14.70;57.90;;;;;;5006327;28;20448;-60
2024/03/01 09:59:46;;;;;;;25.03;17.90;;;14.60;58.10;;;;;;5009149;28;20853;-61
2024/03/01 10:02:27;;;;;;;25.43;18.67;;;14.60;58.50;;;;;;5013067;28;20448;-61
2024/03/01 10:04:59;;;;;;;24.67;17.27;;;14.70;58.50;;;;;;5011433;28;20455;-62
2024/03/01 10:07:48;;;;;;;26.67;17.20;;;14.80;58.40;;;;;;5009225;28;20464;-61
2024/03/01 10:10:36;;;;;;;29.23;16.80;;;14.70;58.40;;;;;;5013509;28;20413;-62
2024/03/01 10:13:14;;;;;;;22.07;16.37;;;14.60;58.30;;;;;;5007410;28;20489;-62
2024/03/01 10:15:50;;;;;;;23.10;15.90;;;14.70;58.40;;;;;;5010928;28;20464;-61
2024/03/01 10:19:00;;;;;;;22.20;17.97;;;14.70;58.60;;;;;;5009999;28;20417;-61
2024/03/01 10:21:43;;;;;;;24.50;16.27;;;14.70;58.30;;;;;;4993294;28;20485;-62
2024/03/01 10:24:09;;;;;;;21.00;16.17;;;14.60;59.10;;;;;;5006450;28;20433;-61
2024/03/01 10:26:38;;;;;;;21.93;15.60;;;14.40;59.30;;;;;;5011924;28;20559;-60
2024/03/01 10:29:23;;;;;;;23.37;16.40;;;14.30;60.70;;;;;;5012365;28;20182;-62
2024/03/01 10:32:10;;;;;;;23.50;15.70;;;14.10;60.70;;;;;;5011194;28;20436;-61
2024/03/01 10:35:05;;;;;;;18.23;14.00;;;14.00;61.40;;;;;;5007303;28;20480;-61
2024/03/01 10:37:55;;;;;;;23.70;14.63;;;13.80;61.60;;;;;;5008694;28;20531;-61
2024/03/01 10:40:22;;;;;;;19.63;14.77;;;13.70;62.40;;;;;;5013994;28;20431;-60
2024/03/01 10:43:06;;;;;;;20.67;13.50;;;13.40;63.20;;;;;;5010125;28;21039;-62
2024/03/01 10:45:58;;;;;;;20.37;12.80;;;13.50;63.70;;;;;;5009814;28;20894;-62
2024/03/01 10:48:25;;;;;;;19.83;14.67;;;13.80;63.10;;;;;;5005096;28;20448;-62
2024/03/01 10:51:01;;;;;;;19.03;14.30;;;14.20;62.00;;;;;;5011319;28;20486;-62
2024/03/01 10:53:32;;;;;;;17.50;13.20;;;14.50;60.90;;;;;;5005735;28;20479;-59
2024/03/01 10:56:06;;;;;;;20.20;12.37;;;14.70;60.40;;;;;;5010508;28;20484;-61
2024/03/01 10:58:49;;;;;;;20.10;13.00;;;14.80;60.00;;;;;;5008671;28;20990;-60
2024/03/01 11:01:24;;;;;;;17.07;12.10;;;15.00;59.80;;;;;;5014605;28;20421;-61
2024/03/01 11:04:10;;;;;;;18.47;12.10;;;14.90;59.60;;;;;;5011298;28;21223;-61
2024/03/01 11:07:14;;;;;;;16.87;12.27;;;14.90;59.60;;;;;;5010188;28;20476;-62
2024/03/01 11:09:57;;;;;;;17.13;13.67;;;15.00;59.60;;;;;;4992627;28;20580;-61
2024/03/01 11:12:38;;;;;;;19.83;13.53;;;15.10;59.70;;;;;;5010398;28;20489;-61
2024/03/01 11:15:13;;;;;;;16.97;13.03;;;15.20;59.70;;;;;;5009429;28;20481;-62
2024/03/01 11:17:41;;;;;;;18.07;13.33;;;15.10;59.90;;;;;;5011216;28;20444;-60
2024/03/01 11:20:47;;;;;;;16.80;12.40;;;15.20;59.80;;;;;;5009876;28;20436;-62
2024/03/01 11:23:20;;;;;;;15.63;11.80;;;15.30;59.90;;;;;;4996774;28;20469;-62
2024/03/01 11:26:16;;;;;;;14.60;9.63;;;15.50;59.70;;;;;;5012248;28;20429;-60
2024/03/01 11:28:47;;;;;;;14.60;10.93;;;15.50;59.80;;;;;;5008734;28;20813;-61
2024/03/01 11:31:21;;;;;;;19.73;12.67;;;15.50;59.50;;;;;;5006234;28;20797;-61
2024/03/01 11:33:48;;;;;;;13.27;9.73;;;15.50;59.40;;;;;;5007588;28;20573;-61
2024/03/01 11:36:30;;;;;;;16.37;11.03;;;15.60;59.30;;;;;;5005347;28;20465;-60
2024/03/01 11:39:03;;;;;;;11.40;9.83;;;15.50;58.90;;;;;;5007058;28;20472;-60
2024/03/01 11:42:19;;;;;;;15.30;11.80;;;15.50;60.30;;;;;;5007955;28;20460;-60
2024/03/01 11:44:54;;;;;;;15.53;11.00;;;15.70;60.80;;;;;;5009065;28;20454;-60
2024/03/01 11:47:57;;;;;;;13.60;10.47;;;15.80;61.70;;;;;;5008256;28;20575;-61
2024/03/01 11:50:33;;;;;;;18.60;10.77;;;15.80;61.70;;;;;;5005684;28;20445;-60
2024/03/01 11:53:46;;;;;;;14.73;10.63;;;15.80;61.40;;;;;;5010142;28;20479;-61
2024/03/01 11:56:35;;;;;;;12.67;9.97;;;15.90;61.40;;;;;;4987275;28;20508;-60
2024/03/01 11:59:21;;;;;;;11.10;8.60;;;16.00;60.00;;;;;;4988174;28;21016;-59
2024/03/01 12:02:01;;;;;;;11.57;8.83;;;16.00;60.80;;;;;;5002931;28;20464;-60
2024/03/01 12:05:00;;;;;;;10.63;9.20;;;15.70;59.80;;;;;;5005359;28;20421;-59
2024/03/01 12:07:35;;;;;;;12.30;8.30;;;15.40;61.90;;;;;;5006541;28;20451;-61
2024/03/01 12:10:38;;;;;;;10.50;8.83;;;15.30;62.30;;;;;;5007874;28;20409;-61
2024/03/01 12:13:09;;;;;;;11.10;9.00;;;15.40;63.00;;;;;;5004576;28;20958;-60
2024/03/01 12:15:46;;;;;;;12.07;8.63;;;15.30;63.90;;;;;;5005768;28;20444;-60
2024/03/01 12:18:21;;;;;;;10.47;7.70;;;15.40;63.00;;;;;;5004246;28;20488;-58
2024/03/01 12:21:12;;;;;;;10.27;7.93;;;15.30;62.90;;;;;;5004965;28;20436;-60
2024/03/01 12:24:13;;;;;;;11.27;8.13;;;15.40;62.10;;;;;;5008540;28;20435;-59
2024/03/01 12:26:45;;;;;;;11.87;8.83;;;15.50;62.30;;;;;;5003712;28;20460;-59
2024/03/01 12:29:33;;;;;;;12.13;7.93;;;15.60;62.60;;;;;;5009334;28;20463;-60
2024/03/01 12:32:17;;;;;;;10.43;8.10;;;15.20;63.40;;;;;;5006235;28;20468;-60
2024/03/01 12:35:22;;;;;;;10.40;7.50;;;15.10;63.50;;;;;;5007376;28;20480;-59
2024/03/01 12:38:17;;;;;;;12.93;7.70;;;15.00;65.00;;;;;;5007990;28;20483;-60
2024/03/01 12:40:52;;;;;;;10.10;7.87;;;15.30;64.00;;;;;;5007020;28;20440;-60
2024/03/01 12:43:56;;;;;;;12.10;8.40;;;15.20;64.30;;;;;;5006191;28;20954;-60
2024/03/01 12:46:52;;;;;;;10.83;9.10;;;15.30;64.90;;;;;;5003982;28;20520;-59